createdAt,value
2022-10-30T00:00:19.595Z,70.45
2022-10-30T00:02:49.107Z,70.15
2022-10-30T00:05:16.053Z,70.05
2022-10-30T00:07:42.441Z,69.56
2022-10-30T00:10:09.097Z,69.80
2022-10-30T00:12:35.574Z,70.16
2022-10-30T00:15:02.040Z,69.96
2022-10-30T00:17:28.531Z,69.92
2022-10-30T00:19:55.019Z,69.82
2022-10-30T00:22:21.445Z,69.41
2022-10-30T00:24:47.863Z,69.55
2022-10-30T00:27:14.292Z,69.67
2022-10-30T00:29:40.814Z,69.43
2022-10-30T00:32:07.280Z,69.34
2022-10-30T00:34:33.767Z,69.52
2022-10-30T00:37:00.204Z,69.08
2022-10-30T00:39:26.647Z,69.63
2022-10-30T00:41:53.180Z,70.02
2022-10-30T00:44:41.434Z,69.54
2022-10-30T00:47:13.113Z,69.80
2022-10-30T00:49:44.227Z,69.83
2022-10-30T00:52:10.989Z,69.98
2022-10-30T00:54:37.453Z,70.04
2022-10-30T00:57:04.807Z,69.70
2022-10-30T00:59:31.988Z,69.71
2022-10-30T01:01:58.869Z,69.81
2022-10-30T01:04:29.097Z,70.06
2022-10-30T01:06:56.742Z,69.85
2022-10-30T01:09:23.110Z,69.89
2022-10-30T01:11:49.539Z,69.48
2022-10-30T01:14:16.325Z,68.46
2022-10-30T01:16:58.316Z,68.51
2022-10-30T01:19:47.341Z,68.68
2022-10-30T01:22:32.651Z,69.21
2022-10-30T01:25:17.948Z,69.18
2022-10-30T01:28:03.173Z,69.31
2022-10-30T01:30:35.644Z,68.91
2022-10-30T01:33:21.095Z,69.18
2022-10-30T01:35:49.157Z,69.25
2022-10-30T01:38:27.427Z,69.44
2022-10-30T01:40:54.156Z,69.69
2022-10-30T01:43:20.684Z,69.79
2022-10-30T01:45:55.369Z,69.33
2022-10-30T01:48:40.749Z,69.91
2022-10-30T01:51:20.199Z,70.03
2022-10-30T01:53:49.718Z,70.26
2022-10-30T01:56:22.187Z,69.80
2022-10-30T01:59:19.363Z,69.45
2022-10-30T02:01:45.971Z,69.93
2022-10-30T02:04:12.786Z,70.18
2022-10-30T02:06:39.294Z,69.89
2022-10-30T02:09:05.719Z,69.67
2022-10-30T02:11:32.376Z,69.45
2022-10-30T02:14:00.585Z,68.39
2022-10-30T02:16:27.243Z,68.40
2022-10-30T02:18:53.854Z,68.45
2022-10-30T02:21:20.317Z,67.95
2022-10-30T02:23:47.061Z,68.38
2022-10-30T02:26:14.061Z,68.10
2022-10-30T02:28:41.560Z,68.53
2022-10-30T02:31:08.003Z,68.56
2022-10-30T02:33:35.358Z,68.87
2022-10-30T02:36:03.457Z,67.91
2022-10-30T02:38:30.175Z,67.58
2022-10-30T02:40:57.781Z,67.66
2022-10-30T02:43:24.648Z,67.71
2022-10-30T02:45:51.820Z,67.65
2022-10-30T02:48:19.151Z,67.22
2022-10-30T02:50:45.561Z,67.87
2022-10-30T02:53:13.008Z,67.37
2022-10-30T02:55:40.057Z,67.60
2022-10-30T02:58:06.493Z,67.20
2022-10-30T03:00:32.932Z,67.13
2022-10-30T03:02:59.707Z,67.27
2022-10-30T03:05:26.123Z,67.53
2022-10-30T03:07:53.851Z,67.54
2022-10-30T03:10:20.296Z,67.51
2022-10-30T03:12:46.768Z,67.57
2022-10-30T03:15:15.461Z,67.88
2022-10-30T03:20:11.069Z,68.12
2022-10-30T03:22:37.764Z,67.84
2022-10-30T03:25:04.544Z,67.98
2022-10-30T03:27:33.008Z,68.32
2022-10-30T03:29:59.590Z,68.35
2022-10-30T03:34:59.957Z,67.80
2022-10-30T03:37:26.327Z,67.57
2022-10-30T03:39:52.920Z,67.94
2022-10-30T03:42:21.373Z,68.34
2022-10-30T03:44:49.132Z,68.17
2022-10-30T03:47:15.686Z,68.44
2022-10-30T03:49:44.471Z,68.28
2022-10-30T03:52:13.954Z,68.66
2022-10-30T03:54:40.611Z,68.84
2022-10-30T03:57:08.930Z,69.27
2022-10-30T03:59:55.444Z,69.18
2022-10-30T04:02:49.537Z,68.82
2022-10-30T04:05:18.890Z,69.25
2022-10-30T04:07:46.816Z,69.22
2022-10-30T04:10:15.776Z,69.83
2022-10-30T04:12:45.777Z,69.75
2022-10-30T04:15:12.335Z,70.18
2022-10-30T04:17:39.056Z,69.13
2022-10-30T04:20:06.399Z,68.93
2022-10-30T04:22:32.995Z,69.21
2022-10-30T04:24:59.561Z,69.50
2022-10-30T04:27:29.902Z,70.13
2022-10-30T04:29:57.213Z,69.97
2022-10-30T04:32:23.758Z,69.39
2022-10-30T04:34:56.577Z,69.21
2022-10-30T04:37:23.129Z,69.55
2022-10-30T04:39:50.738Z,69.57
2022-10-30T04:42:21.529Z,68.85
2022-10-30T04:44:53.243Z,68.45
2022-10-30T04:47:19.962Z,68.49
2022-10-30T04:49:46.584Z,68.75
2022-10-30T04:52:13.191Z,68.30
2022-10-30T04:54:39.926Z,67.84
2022-10-30T04:57:06.602Z,68.06
2022-10-30T04:59:33.152Z,68.55
2022-10-30T05:02:00.434Z,68.75
2022-10-30T05:04:27.251Z,68.31
2022-10-30T05:06:54.093Z,68.48
2022-10-30T05:09:20.615Z,68.12
2022-10-30T05:11:47.920Z,68.43
2022-10-30T05:14:14.420Z,68.12
2022-10-30T05:16:42.257Z,68.70
2022-10-30T05:19:08.821Z,69.32
2022-10-30T05:21:35.478Z,69.23
2022-10-30T05:24:02.090Z,69.38
2022-10-30T05:26:35.687Z,68.65
2022-10-30T05:29:02.344Z,68.50
2022-10-30T05:31:29.593Z,68.71
2022-10-30T05:34:07.392Z,69.63
2022-10-30T05:36:37.395Z,69.19
2022-10-30T05:39:04.164Z,69.25
2022-10-30T05:41:34.880Z,69.35
2022-10-30T05:44:01.963Z,69.19
2022-10-30T05:46:28.709Z,69.33
2022-10-30T05:48:58.301Z,69.33
2022-10-30T05:51:24.972Z,69.34
2022-10-30T05:53:55.364Z,69.13
2022-10-30T05:56:25.749Z,69.18
2022-10-30T05:58:52.474Z,69.74
2022-10-30T06:01:19.395Z,69.47
2022-10-30T06:03:50.450Z,68.72
2022-10-30T06:06:17.028Z,68.35
2022-10-30T06:08:44.357Z,68.16
2022-10-30T06:11:29.670Z,68.49
2022-10-30T06:13:58.756Z,68.68
2022-10-30T06:16:42.810Z,68.48
2022-10-30T06:19:19.122Z,68.66
2022-10-30T06:21:48.281Z,69.00
2022-10-30T06:24:24.062Z,68.71
2022-10-30T06:27:08.356Z,68.75
2022-10-30T06:29:34.935Z,69.09
2022-10-30T06:32:05.538Z,69.39
2022-10-30T06:34:34.035Z,69.69
2022-10-30T06:37:00.668Z,69.60
2022-10-30T06:39:27.613Z,69.37
2022-10-30T06:42:08.911Z,69.40
2022-10-30T06:44:49.319Z,69.43
2022-10-30T06:47:15.965Z,69.61
2022-10-30T06:49:42.474Z,69.42
2022-10-30T06:52:09.157Z,69.80
2022-10-30T06:54:35.781Z,69.44
2022-10-30T06:57:05.007Z,68.44
2022-10-30T06:59:50.025Z,68.08
2022-10-30T07:02:34.616Z,67.69
2022-10-30T07:05:05.850Z,68.69
2022-10-30T07:07:33.124Z,68.14
2022-10-30T07:10:00.175Z,67.52
2022-10-30T07:13:02.793Z,67.60
2022-10-30T07:16:01.808Z,66.91
2022-10-30T07:18:35.072Z,66.69
2022-10-30T07:21:02.420Z,67.20
2022-10-30T07:23:29.605Z,66.80
2022-10-30T07:26:22.871Z,66.27
2022-10-30T07:28:50.859Z,65.99
2022-10-30T07:31:34.972Z,66.10
2022-10-30T07:34:09.241Z,66.01
2022-10-30T07:36:45.265Z,65.68
2022-10-30T07:39:50.540Z,65.48
2022-10-30T07:42:23.232Z,65.49
2022-10-30T07:47:54.564Z,65.74
2022-10-30T07:50:33.907Z,65.69
2022-10-30T07:53:00.439Z,66.13
2022-10-30T07:55:30.126Z,64.90
2022-10-30T07:58:15.639Z,64.47
2022-10-30T08:01:03.551Z,64.80
2022-10-30T08:03:32.432Z,65.37
2022-10-30T08:08:43.813Z,64.72
2022-10-30T08:11:30.679Z,63.78
2022-10-30T08:13:59.161Z,64.85
2022-10-30T08:16:25.720Z,63.22
2022-10-30T08:18:52.466Z,63.55
2022-10-30T08:21:23.064Z,63.55
2022-10-30T08:24:03.434Z,62.75
2022-10-30T08:26:32.480Z,62.09
2022-10-30T08:28:59.157Z,63.04
2022-10-30T08:31:27.944Z,64.24
2022-10-30T08:34:05.387Z,63.04
2022-10-30T08:36:32.128Z,61.65
2022-10-30T08:38:59.009Z,62.08
2022-10-30T08:41:45.636Z,62.68
2022-10-30T08:44:12.475Z,62.30
2022-10-30T08:46:57.895Z,62.59
2022-10-30T08:49:24.883Z,61.45
2022-10-30T08:51:55.432Z,60.83
2022-10-30T08:54:21.984Z,61.46
2022-10-30T08:56:48.716Z,61.03
2022-10-30T08:59:20.236Z,60.34
2022-10-30T09:01:51.049Z,60.29
2022-10-30T09:04:20.610Z,60.67
2022-10-30T09:07:08.835Z,59.96
2022-10-30T09:09:57.054Z,59.37
2022-10-30T09:12:28.579Z,58.76
2022-10-30T09:14:55.883Z,59.26
2022-10-30T09:17:25.965Z,58.81
2022-10-30T09:19:54.853Z,58.03
2022-10-30T09:22:35.045Z,56.70
2022-10-30T09:25:04.018Z,58.59
2022-10-30T09:27:58.368Z,58.98
2022-10-30T09:30:43.081Z,58.06
2022-10-30T09:33:16.386Z,57.18
2022-10-30T09:36:15.606Z,56.56
2022-10-30T09:38:46.158Z,57.83
2022-10-30T09:41:36.665Z,57.01
2022-10-30T09:44:28.074Z,57.23
2022-10-30T09:47:26.559Z,55.85
2022-10-30T09:50:34.483Z,56.57
2022-10-30T09:53:16.700Z,55.74
2022-10-30T09:56:01.574Z,54.18
2022-10-30T09:58:29.864Z,54.48
2022-10-30T10:01:07.137Z,54.96
2022-10-30T10:06:54.594Z,54.84
2022-10-30T10:09:47.257Z,54.15
2022-10-30T10:12:28.405Z,53.81
2022-10-30T10:14:56.471Z,54.15
2022-10-30T10:17:31.827Z,55.13
2022-10-30T10:19:59.940Z,54.11
2022-10-30T10:22:53.528Z,51.25
2022-10-30T10:25:20.892Z,54.61
2022-10-30T10:28:12.223Z,55.95
2022-10-30T10:30:47.905Z,54.54
2022-10-30T10:33:33.222Z,54.02
2022-10-30T10:36:22.561Z,51.53
2022-10-30T10:39:14.036Z,54.40
2022-10-30T10:42:01.642Z,54.48
2022-10-30T10:44:28.012Z,55.69
2022-10-30T10:47:07.005Z,55.22
2022-10-30T10:49:43.099Z,55.47
2022-10-30T10:52:25.218Z,55.35
2022-10-30T10:55:05.511Z,53.31
2022-10-30T10:57:37.994Z,52.90
2022-10-30T11:00:14.419Z,54.99
2022-10-30T11:03:01.439Z,52.51
2022-10-30T11:05:39.953Z,52.65
2022-10-30T11:08:15.584Z,51.92
2022-10-30T11:10:42.252Z,52.90
2022-10-30T11:13:14.581Z,51.64
2022-10-30T11:15:59.344Z,53.67
2022-10-30T11:18:25.936Z,53.78
2022-10-30T11:21:09.334Z,51.09
2022-10-30T11:23:40.624Z,52.07
2022-10-30T11:26:20.348Z,52.31
2022-10-30T11:28:50.348Z,49.48
2022-10-30T11:31:25.197Z,51.99
2022-10-30T11:33:51.959Z,52.02
2022-10-30T11:36:22.737Z,50.41
2022-10-30T11:39:15.686Z,49.37
2022-10-30T11:41:44.568Z,49.15
2022-10-30T11:44:19.007Z,49.01
2022-10-30T11:46:45.760Z,47.84
2022-10-30T11:49:53.303Z,47.71
2022-10-30T11:52:26.589Z,51.92
2022-10-30T11:54:57.905Z,53.33
2022-10-30T11:57:31.274Z,54.21
2022-10-30T12:00:05.242Z,53.94
2022-10-30T12:02:42.718Z,54.65
2022-10-30T12:05:27.675Z,55.14
2022-10-30T12:08:11.313Z,55.79
2022-10-30T12:13:26.808Z,56.99
2022-10-30T12:16:18.116Z,56.46
2022-10-30T12:19:12.744Z,57.06
2022-10-30T12:21:40.079Z,56.66
2022-10-30T12:24:17.987Z,56.63
2022-10-30T12:26:50.732Z,56.32
2022-10-30T12:29:21.057Z,56.64
2022-10-30T12:32:00.407Z,57.72
2022-10-30T12:34:38.108Z,57.70
2022-10-30T12:37:21.429Z,57.47
2022-10-30T12:39:48.502Z,58.44
2022-10-30T12:42:39.554Z,58.44
2022-10-30T12:45:11.040Z,57.69
2022-10-30T12:47:47.069Z,56.76
2022-10-30T12:50:13.574Z,58.71
2022-10-30T12:52:42.036Z,58.45
2022-10-30T12:55:23.127Z,57.74
2022-10-30T12:57:55.265Z,58.36
2022-10-30T13:00:37.404Z,58.41
2022-10-30T13:03:10.954Z,58.38
2022-10-30T13:05:41.648Z,58.79
2022-10-30T13:08:26.527Z,59.04
2022-10-30T13:10:56.230Z,59.57
2022-10-30T13:13:29.499Z,58.83
2022-10-30T13:15:56.725Z,58.01
2022-10-30T13:18:24.077Z,58.71
2022-10-30T13:20:53.551Z,57.87
2022-10-30T13:23:21.304Z,58.68
2022-10-30T13:26:08.107Z,57.52
2022-10-30T13:28:44.349Z,56.97
2022-10-30T13:31:26.023Z,54.75
2022-10-30T13:33:58.494Z,55.23
2022-10-30T13:36:35.770Z,56.51
2022-10-30T13:39:05.357Z,56.25
2022-10-30T13:41:50.660Z,56.90
2022-10-30T13:44:30.587Z,57.79
2022-10-30T13:47:03.119Z,57.65
2022-10-30T13:49:29.623Z,58.37
2022-10-30T13:52:05.312Z,58.68
2022-10-30T13:54:38.866Z,59.03
2022-10-30T13:57:08.812Z,59.32
2022-10-30T13:59:58.637Z,59.75
2022-10-30T14:02:25.141Z,60.49
2022-10-30T14:04:59.287Z,60.45
2022-10-30T14:07:49.048Z,60.82
2022-10-30T14:10:15.938Z,60.75
2022-10-30T14:12:52.822Z,60.33
2022-10-30T14:15:31.397Z,60.36
2022-10-30T14:18:13.166Z,60.27
2022-10-30T14:20:48.779Z,60.10
2022-10-30T14:23:15.957Z,59.58
2022-10-30T14:25:42.954Z,60.31
2022-10-30T14:28:19.211Z,60.46
2022-10-30T14:30:45.848Z,60.85
2022-10-30T14:33:31.209Z,61.23
2022-10-30T14:36:26.733Z,61.99
2022-10-30T14:39:12.037Z,62.09
2022-10-30T14:41:44.167Z,62.51
2022-10-30T14:44:13.738Z,62.64
2022-10-30T14:46:54.470Z,62.72
2022-10-30T14:49:41.893Z,63.15
2022-10-30T14:52:28.647Z,63.59
2022-10-30T14:54:55.780Z,63.65
2022-10-30T14:57:23.251Z,63.90
2022-10-30T14:59:49.935Z,64.05
2022-10-30T15:02:20.741Z,64.00
2022-10-30T15:04:53.304Z,63.98
2022-10-30T15:07:22.782Z,63.97
2022-10-30T15:09:53.314Z,63.83
2022-10-30T15:12:26.362Z,63.82
2022-10-30T15:14:54.826Z,63.97
2022-10-30T15:17:32.565Z,64.18
2022-10-30T15:19:59.408Z,64.69
2022-10-30T15:22:26.640Z,64.78
2022-10-30T15:24:53.162Z,64.70
2022-10-30T15:27:21.287Z,64.58
2022-10-30T15:29:52.132Z,64.89
2022-10-30T15:32:19.853Z,64.86
2022-10-30T15:34:53.556Z,64.90
2022-10-30T15:37:19.920Z,65.14
2022-10-30T15:39:47.873Z,64.91
2022-10-30T15:42:17.406Z,65.35
2022-10-30T15:45:04.916Z,65.23
2022-10-30T15:47:32.226Z,65.51
2022-10-30T15:49:58.959Z,65.54
2022-10-30T15:52:26.699Z,65.67
2022-10-30T15:55:13.403Z,65.61
2022-10-30T15:58:03.568Z,65.94
2022-10-30T16:00:36.730Z,65.98
2022-10-30T16:03:15.627Z,66.00
2022-10-30T16:05:49.591Z,66.00
2022-10-30T16:08:20.314Z,66.27
2022-10-30T16:10:47.308Z,66.31
2022-10-30T16:13:18.007Z,66.18
2022-10-30T16:15:45.704Z,66.21
2022-10-30T16:18:22.386Z,66.08
2022-10-30T16:20:52.666Z,66.37
2022-10-30T16:23:20.118Z,66.18
2022-10-30T16:25:47.549Z,66.35
2022-10-30T16:28:24.461Z,66.25
2022-10-30T16:30:50.875Z,66.13
2022-10-30T16:33:17.977Z,66.45
2022-10-30T16:35:48.016Z,66.35
2022-10-30T16:38:19.747Z,66.59
2022-10-30T16:40:46.263Z,66.49
2022-10-30T16:43:24.242Z,66.76
2022-10-30T16:45:50.820Z,67.01
2022-10-30T16:48:19.857Z,66.89
2022-10-30T16:50:46.271Z,66.78
2022-10-30T16:53:19.463Z,66.86
2022-10-30T16:55:46.224Z,67.14
2022-10-30T16:58:12.846Z,66.90
2022-10-30T17:00:39.850Z,67.15
2022-10-30T17:03:07.529Z,66.81
2022-10-30T17:05:34.328Z,67.25
2022-10-30T17:08:02.616Z,67.29
2022-10-30T17:10:31.765Z,67.46
2022-10-30T17:13:17.478Z,67.58
2022-10-30T17:15:44.091Z,67.51
2022-10-30T17:18:12.096Z,67.55
2022-10-30T17:20:38.836Z,67.88
2022-10-30T17:23:06.600Z,67.89
2022-10-30T17:25:37.435Z,68.00
2022-10-30T17:28:04.199Z,68.12
2022-10-30T17:30:43.214Z,67.98
2022-10-30T17:33:28.678Z,68.03
2022-10-30T17:38:26.670Z,67.78
2022-10-30T17:40:53.150Z,67.96
2022-10-30T17:43:20.053Z,67.77
2022-10-30T17:45:49.327Z,67.97
2022-10-30T17:48:16.351Z,67.73
2022-10-30T17:50:43.178Z,67.83
2022-10-30T17:53:16.314Z,67.86
2022-10-30T17:55:43.208Z,67.90
2022-10-30T17:58:09.605Z,68.14
2022-10-30T18:00:36.055Z,67.84
2022-10-30T18:03:02.995Z,68.00
2022-10-30T18:05:30.681Z,68.21
2022-10-30T18:07:57.089Z,68.09
2022-10-30T18:10:24.617Z,68.25
2022-10-30T18:12:51.081Z,68.19
2022-10-30T18:15:26.873Z,68.64
2022-10-30T18:17:53.669Z,68.72
2022-10-30T18:20:20.161Z,68.75
2022-10-30T18:22:46.601Z,68.58
2022-10-30T18:25:21.011Z,68.66
2022-10-30T18:27:47.436Z,68.78
2022-10-30T18:30:14.107Z,68.70
2022-10-30T18:32:40.999Z,68.88
2022-10-30T18:35:12.871Z,68.55
2022-10-30T18:37:39.755Z,68.75
2022-10-30T18:40:06.373Z,68.74
2022-10-30T18:42:32.748Z,68.93
2022-10-30T18:44:59.336Z,68.97
2022-10-30T18:47:26.213Z,68.35
2022-10-30T18:49:52.788Z,68.11
2022-10-30T18:52:19.235Z,68.38
2022-10-30T18:54:45.819Z,68.54
2022-10-30T18:57:12.195Z,68.33
2022-10-30T18:59:39.133Z,67.91
2022-10-30T19:02:14.142Z,67.58
2022-10-30T19:04:41.693Z,67.21
2022-10-30T19:07:08.273Z,67.37
2022-10-30T19:09:34.737Z,68.03
2022-10-30T19:12:01.218Z,67.69
2022-10-30T19:14:27.711Z,68.11
2022-10-30T19:16:54.155Z,68.27
2022-10-30T19:19:21.013Z,68.56
2022-10-30T19:21:47.381Z,69.07
2022-10-30T19:24:14.926Z,69.44
2022-10-30T19:26:41.389Z,69.36
2022-10-30T19:29:07.848Z,69.44
2022-10-30T19:31:34.444Z,69.23
2022-10-30T19:34:00.888Z,69.54
2022-10-30T19:36:33.559Z,69.27
2022-10-30T19:39:05.827Z,69.37
2022-10-30T19:41:35.400Z,69.60
2022-10-30T19:44:01.925Z,69.39
2022-10-30T19:46:28.295Z,69.67
2022-10-30T19:48:57.591Z,69.58
2022-10-30T19:51:24.912Z,69.43
2022-10-30T19:53:53.101Z,69.42
2022-10-30T19:56:20.288Z,69.31
2022-10-30T19:58:46.823Z,69.56
2022-10-30T20:01:13.648Z,69.52
2022-10-30T20:03:40.678Z,69.84
2022-10-30T20:06:09.923Z,69.85
2022-10-30T20:08:36.622Z,69.94
2022-10-30T20:11:03.102Z,70.27
2022-10-30T20:13:29.811Z,70.12
2022-10-30T20:15:56.713Z,70.38
2022-10-30T20:18:24.514Z,70.35
2022-10-30T20:20:51.800Z,70.29
2022-10-30T20:23:18.738Z,70.44
2022-10-30T20:25:48.106Z,70.38
2022-10-30T20:28:17.572Z,70.32
2022-10-30T20:30:44.035Z,70.11
2022-10-30T20:33:10.996Z,70.31
2022-10-30T20:35:37.459Z,70.03
2022-10-30T20:38:04.512Z,70.28
2022-10-30T20:40:31.128Z,70.27
2022-10-30T20:43:01.844Z,70.22
2022-10-30T20:45:29.855Z,69.68
2022-10-30T20:47:56.598Z,69.95
2022-10-30T20:50:23.298Z,69.73
2022-10-30T20:52:49.784Z,69.68
2022-10-30T20:55:16.530Z,69.95
2022-10-30T20:57:43.049Z,70.09
2022-10-30T21:00:10.952Z,70.03
2022-10-30T21:02:37.555Z,70.12
2022-10-30T21:05:12.056Z,69.68
2022-10-30T21:07:50.027Z,69.85
2022-10-30T21:10:16.602Z,70.35
2022-10-30T21:12:43.033Z,70.11
2022-10-30T21:15:09.683Z,70.66
2022-10-30T21:17:36.455Z,70.43
2022-10-30T21:20:02.971Z,70.66
2022-10-30T21:22:29.395Z,70.73
2022-10-30T21:24:55.858Z,70.38
2022-10-30T21:27:22.675Z,70.45
2022-10-30T21:29:49.186Z,70.55
2022-10-30T21:32:15.640Z,70.46
2022-10-30T21:34:42.175Z,70.23
2022-10-30T21:37:08.812Z,70.36
2022-10-30T21:39:35.415Z,70.68
2022-10-30T21:42:01.881Z,69.82
2022-10-30T21:44:28.310Z,70.18
2022-10-30T21:46:54.748Z,69.75
2022-10-30T21:49:21.729Z,70.12
2022-10-30T21:51:50.499Z,70.55
2022-10-30T21:54:17.541Z,70.49
2022-10-30T21:56:44.037Z,70.77
2022-10-30T21:59:10.612Z,71.03
2022-10-30T22:01:37.872Z,70.96
2022-10-30T22:04:05.335Z,71.21
2022-10-30T22:06:31.924Z,70.56
2022-10-30T22:08:58.455Z,70.70
2022-10-30T22:11:26.033Z,70.88
2022-10-30T22:13:54.356Z,70.78
2022-10-30T22:16:20.767Z,70.65
2022-10-30T22:18:47.328Z,70.80
2022-10-30T22:21:13.943Z,70.16
2022-10-30T22:23:40.583Z,69.53
2022-10-30T22:26:08.342Z,70.19
2022-10-30T22:28:34.950Z,70.44
2022-10-30T22:31:10.587Z,70.73
2022-10-30T22:33:37.279Z,70.95
2022-10-30T22:36:05.626Z,70.69
2022-10-30T22:38:32.960Z,70.87
2022-10-30T22:41:19.667Z,70.77
2022-10-30T22:43:46.614Z,70.73
2022-10-30T22:46:13.666Z,70.48
2022-10-30T22:48:40.049Z,70.76
2022-10-30T22:51:11.765Z,70.12
2022-10-30T22:53:41.867Z,70.36
2022-10-30T22:56:14.366Z,70.34
2022-10-30T22:58:40.891Z,70.38
2022-10-30T23:01:08.490Z,70.51
2022-10-30T23:03:35.077Z,69.81
2022-10-30T23:06:01.895Z,69.76
2022-10-30T23:08:28.459Z,69.95
2022-10-30T23:10:55.235Z,70.46
2022-10-30T23:15:48.525Z,70.08
2022-10-30T23:18:15.063Z,69.76
2022-10-30T23:20:42.116Z,70.19
2022-10-30T23:23:08.580Z,70.55
2022-10-30T23:25:35.198Z,70.67
2022-10-30T23:28:02.347Z,70.11
2022-10-30T23:30:29.106Z,70.02
2022-10-30T23:32:55.550Z,70.20
2022-10-30T23:35:21.983Z,70.15
2022-10-30T23:37:51.794Z,70.75
2022-10-30T23:40:27.401Z,70.69
2022-10-30T23:42:54.616Z,70.43
2022-10-30T23:45:21.796Z,70.38
2022-10-30T23:47:48.584Z,70.46
2022-10-30T23:50:15.411Z,70.95
2022-10-30T23:52:41.839Z,70.89
2022-10-30T23:55:08.581Z,70.62
2022-10-30T23:57:34.991Z,70.93
